Morgantown, Indiana
Current Conditions -  °F | °C
As of 11:15 AM on Sunday 25 Jan 2015 (Local Time) from K1II Reporting Station
Overcast Overcast  
Wind Chill: 32°   Ceiling: 6000
Heat Index: 37°   Visibility: 10mi
Dew Point: 32°   Wind: 7mph
Humidity: 81%   Direction: 150°SSE
Pressure: 29.68"   Gusts: NA
Location:  39.37°N, 86.26°W
Report Text: K1II 251615Z AUTO 15006KT 10SM BKN060 OVC075 03/00 A2968 RMK AO2
Loading
Personal Weather Stations






























Interactive Weather Map New forecast layout! Learn more

10-Day Weather Forecast

Advertisements
Track Severe Weather on mobile